Time;durP1;ratioP1;P1;durP2;ratioP2;P2;SDS_P1;SDS_P2;PMS_P1;PMS_P2;Temp;Humidity;BMP_temperature;BMP_pressure;BME280_temperature;BME280_humidity;BME280_pressure;Samples;Min_cycle;Max_cycle;Signal;HPM_P1;HPM_P2
2022/03/26 00:00:44;;;;;;;20.37;8.80;;;;;;;9.98;40.76;95319.63;5033124;28;20257;-60
2022/03/26 00:03:09;;;;;;;13.53;8.13;;;;;;;10.07;40.28;95324.88;5032753;28;20182;-64
2022/03/26 00:05:35;;;;;;;17.70;7.50;;;;;;;9.90;40.90;95329.53;5032810;28;20727;-64
2022/03/26 00:08:00;;;;;;;15.63;8.10;;;;;;;9.85;41.06;95327.34;5032474;28;20189;-62
2022/03/26 00:10:26;;;;;;;16.03;8.63;;;;;;;9.90;40.71;95335.44;5014657;28;20213;-60
2022/03/26 00:12:52;;;;;;;15.53;8.37;;;;;;;9.82;41.54;95335.16;5032392;28;20176;-60
2022/03/26 00:15:18;;;;;;;15.47;8.70;;;;;;;9.92;41.51;95336.13;5032425;28;20236;-61
2022/03/26 00:17:44;;;;;;;13.97;7.77;;;;;;;9.91;41.41;95334.53;5032417;28;20261;-65
2022/03/26 00:20:10;;;;;;;19.43;8.30;;;;;;;9.92;41.27;95338.66;5014535;28;20615;-65
2022/03/26 00:22:36;;;;;;;16.83;8.53;;;;;;;9.98;41.74;95343.31;5039098;23;20313;-61
2022/03/26 00:25:02;;;;;;;15.97;7.60;;;;;;;9.78;41.75;95338.84;5032157;28;20226;-65
2022/03/26 00:27:28;;;;;;;18.40;8.07;;;;;;;9.41;42.84;95349.13;5032435;28;20190;-65
2022/03/26 00:29:53;;;;;;;29.13;8.83;;;;;;;9.39;41.62;95354.31;5043531;23;20225;-61
2022/03/26 00:32:19;;;;;;;16.67;7.80;;;;;;;9.24;41.70;95353.63;5052189;28;20614;-62
2022/03/26 00:34:44;;;;;;;15.33;7.73;;;;;;;9.04;43.07;95349.09;5051875;28;20222;-61
2022/03/26 00:37:11;;;;;;;15.60;8.10;;;;;;;9.15;42.19;95356.00;5050447;28;20181;-60
2022/03/26 00:39:39;;;;;;;16.53;7.73;;;;;;;9.26;42.11;95354.34;5051942;28;20296;-64
2022/03/26 00:42:05;;;;;;;15.17;7.63;;;;;;;9.21;42.24;95353.03;5051893;28;20232;-64
2022/03/26 00:44:31;;;;;;;15.50;7.53;;;;;;;9.21;42.64;95355.59;5036039;23;20238;-60
2022/03/26 00:46:56;;;;;;;11.93;7.43;;;;;;;9.14;42.22;95355.19;5011200;28;20179;-60
2022/03/26 00:49:22;;;;;;;17.70;7.83;;;;;;;9.19;42.53;95358.19;5012646;28;20190;-64
2022/03/26 00:51:47;;;;;;;15.67;7.30;;;;;;;9.04;43.33;95360.97;5012022;28;20183;-61
2022/03/26 00:54:13;;;;;;;16.77;8.17;;;;;;;9.20;42.20;95359.84;5012248;28;20222;-63
2022/03/26 00:56:40;;;;;;;17.87;7.20;;;;;;;9.30;42.22;95360.81;5010557;28;20187;-63
2022/03/26 00:59:06;;;;;;;16.67;7.13;;;;;;;9.22;41.93;95365.63;5012357;28;20183;-63
2022/03/26 01:01:32;;;;;;;12.20;6.87;;;;;;;9.19;42.86;95348.06;5011880;28;20356;-62
2022/03/26 01:03:58;;;;;;;13.50;6.87;;;;;;;8.92;43.10;95341.50;5012304;28;20191;-61
2022/03/26 01:06:24;;;;;;;19.03;7.23;;;;;;;9.00;44.26;95365.44;5010354;28;20203;-62
2022/03/26 01:08:50;;;;;;;13.73;7.23;;;;;;;9.01;44.31;95368.78;5012089;28;20193;-61
2022/03/26 01:11:17;;;;;;;16.50;7.53;;;;;;;9.01;43.08;95369.59;5011725;28;20279;-63
2022/03/26 01:13:43;;;;;;;13.73;7.20;;;;;;;9.01;43.87;95358.63;5010520;28;20215;-64
2022/03/26 01:16:09;;;;;;;18.00;7.87;;;;;;;8.99;42.70;95365.53;5010322;28;20205;-63
2022/03/26 01:18:34;;;;;;;12.30;6.90;;;;;;;9.15;43.38;95381.38;5011503;28;20680;-64
2022/03/26 01:21:01;;;;;;;14.67;7.73;;;;;;;8.94;44.54;95363.31;5011615;28;20199;-64
2022/03/26 01:23:27;;;;;;;15.53;7.07;;;;;;;8.96;44.44;95379.25;5010293;28;20230;-62
2022/03/26 01:25:52;;;;;;;13.33;7.47;;;;;;;8.94;44.13;95382.78;5011427;28;20219;-60
2022/03/26 01:28:18;;;;;;;18.33;8.63;;;;;;;9.00;44.73;95390.81;5011962;28;20183;-60
2022/03/26 01:30:44;;;;;;;14.63;7.87;;;;;;;9.05;43.61;95385.44;5010158;28;20230;-63
2022/03/26 01:33:09;;;;;;;12.20;6.73;;;;;;;9.15;42.62;95396.59;5010262;28;20261;-64
2022/03/26 01:35:35;;;;;;;16.03;7.40;;;;;;;8.73;43.21;95401.94;5011419;28;20214;-65
2022/03/26 01:38:01;;;;;;;17.00;8.07;;;;;;;8.67;43.91;95390.47;5010222;28;20186;-64
2022/03/26 01:40:28;;;;;;;24.90;8.17;;;;;;;8.64;44.08;95395.78;5011453;28;20199;-61
2022/03/26 01:42:54;;;;;;;16.10;8.03;;;;;;;8.58;45.10;95391.09;5011369;28;20270;-61
2022/03/26 01:45:20;;;;;;;15.03;8.10;;;;;;;8.56;44.75;95397.16;4993848;28;20281;-61
2022/03/26 01:47:45;;;;;;;17.40;7.27;;;;;;;8.29;45.36;95400.56;5010420;28;20347;-61
2022/03/26 01:50:11;;;;;;;13.23;7.57;;;;;;;8.26;45.49;95400.75;5010049;28;20209;-65
2022/03/26 01:52:36;;;;;;;19.33;8.17;;;;;;;8.16;46.00;95403.94;5011397;28;20695;-66
2022/03/26 01:55:09;;;;;;;12.67;7.33;;;;;;;7.98;46.44;95389.91;5011406;28;20214;-64
2022/03/26 01:57:35;;;;;;;14.57;7.53;;;;;;;8.10;46.49;95405.13;5012196;28;20248;-59
2022/03/26 02:00:03;;;;;;;17.73;7.93;;;;;;;8.13;45.52;95411.72;5015216;28;20620;-60
2022/03/26 02:02:28;;;;;;;17.47;7.63;;;;;;;7.99;46.52;95415.13;5014871;28;20191;-64
2022/03/26 02:04:54;;;;;;;15.50;8.07;;;;;;;8.00;45.48;95398.22;5014793;28;20252;-60
2022/03/26 02:07:19;;;;;;;19.33;7.27;;;;;;;8.26;45.55;95417.69;5013891;28;20229;-62
2022/03/26 02:09:45;;;;;;;15.17;8.00;;;;;;;8.19;45.97;95411.34;5026097;23;20229;-64
2022/03/26 02:12:27;;;;;;;13.37;7.70;;;;;;;8.06;45.90;95416.34;5034856;28;20178;-60
2022/03/26 02:14:54;;;;;;;12.53;7.63;;;;;;;7.93;46.17;95412.97;5034593;28;20233;-64
2022/03/26 02:17:20;;;;;;;14.93;7.37;;;;;;;8.12;46.46;95418.50;5034757;28;20240;-63
2022/03/26 02:20:08;;;;;;;17.10;8.17;;;;;;;8.15;45.50;95422.56;5034586;28;20214;-61
2022/03/26 02:22:34;;;;;;;20.87;8.10;;;;;;;8.02;46.04;95422.53;5016681;28;20190;-63
2022/03/26 02:25:00;;;;;;;13.83;7.20;;;;;;;7.85;45.80;95389.88;5034508;28;20210;-61
2022/03/26 02:27:27;;;;;;;23.03;8.13;;;;;;;7.96;46.22;95420.38;5034522;28;20182;-61
2022/03/26 02:29:53;;;;;;;13.67;7.33;;;;;;;7.83;47.18;95394.22;5016354;28;20284;-64
2022/03/26 02:32:23;;;;;;;14.33;7.57;;;;;;;8.05;47.17;95416.47;5034208;28;20179;-60
2022/03/26 02:34:51;;;;;;;18.67;8.40;;;;;;;7.79;47.13;95405.44;5034100;28;20225;-64
2022/03/26 02:37:17;;;;;;;19.47;8.57;;;;;;;7.67;47.27;95416.31;5033984;28;20174;-64
2022/03/26 02:39:44;;;;;;;16.40;8.33;;;;;;;7.75;47.14;95424.25;5034168;28;20598;-63
2022/03/26 02:42:10;;;;;;;15.50;8.57;;;;;;;7.73;47.35;95426.06;5034013;28;20669;-62
2022/03/26 02:44:36;;;;;;;15.27;8.77;;;;;;;7.65;47.59;95418.91;5034116;28;20213;-64
2022/03/26 02:47:01;;;;;;;13.17;8.77;;;;;;;7.72;48.86;95424.41;5016820;28;20175;-63
2022/03/26 02:49:26;;;;;;;15.87;8.17;;;;;;;7.75;48.91;95431.00;5033916;28;20205;-61
2022/03/26 02:51:52;;;;;;;18.73;8.83;;;;;;;7.77;48.07;95427.50;5033823;28;20178;-65
2022/03/26 02:54:20;;;;;;;21.17;8.63;;;;;;;7.69;48.38;95411.97;5041299;23;20233;-64
2022/03/26 02:56:50;;;;;;;17.40;8.27;;;;;;;7.82;48.58;95430.53;5033123;28;20292;-60
2022/03/26 02:59:17;;;;;;;19.13;8.97;;;;;;;7.71;48.19;95420.28;5015816;28;20210;-61
2022/03/26 03:01:43;;;;;;;24.07;8.83;;;;;;;7.74;48.39;95431.94;5033547;28;20637;-61
2022/03/26 03:04:08;;;;;;;17.30;8.47;;;;;;;7.44;47.96;95429.53;5033449;28;20610;-62
2022/03/26 03:06:34;;;;;;;18.80;8.30;;;;;;;7.28;48.94;95436.41;5033466;28;20664;-64
2022/03/26 03:09:01;;;;;;;18.77;7.97;;;;;;;7.25;49.14;95423.94;5032446;28;20179;-64
2022/03/26 03:11:27;;;;;;;15.33;8.13;;;;;;;7.26;48.22;95426.38;5033926;28;20233;-64
2022/03/26 03:13:52;;;;;;;15.33;6.77;;;;;;;7.39;48.51;95429.00;5033405;28;20205;-64
2022/03/26 03:16:18;;;;;;;13.60;7.30;;;;;;;7.36;47.64;95424.09;5033802;28;20534;-61
2022/03/26 03:18:43;;;;;;;14.27;7.43;;;;;;;7.19;47.93;95434.44;5033258;28;20265;-61
2022/03/26 03:21:16;;;;;;;18.97;7.73;;;;;;;7.09;47.68;95439.19;5033789;28;20198;-60
2022/03/26 03:23:41;;;;;;;14.50;6.60;;;;;;;6.71;48.50;95423.72;5016702;28;20594;-61
2022/03/26 03:26:06;;;;;;;9.43;5.90;;;;;;;6.58;48.62;95432.91;5033802;28;20198;-64
2022/03/26 03:28:32;;;;;;;15.20;5.47;;;;;;;6.33;49.51;95425.09;5033453;28;20252;-61
2022/03/26 03:30:57;;;;;;;11.17;6.10;;;;;;;6.21;49.73;95420.72;5033543;28;20293;-63
2022/03/26 03:33:23;;;;;;;11.67;6.20;;;;;;;6.04;50.78;95420.81;5033444;28;20668;-59
2022/03/26 03:35:49;;;;;;;13.17;5.60;;;;;;;5.87;51.34;95428.50;5033358;28;20270;-63
2022/03/26 03:38:15;;;;;;;12.67;6.13;;;;;;;5.65;52.02;95421.25;5033008;28;20748;-61
2022/03/26 03:40:40;;;;;;;9.47;5.80;;;;;;;5.52;52.30;95427.81;5033230;28;20340;-61
2022/03/26 03:43:05;;;;;;;18.23;6.63;;;;;;;5.50;52.68;95436.34;5033093;28;20263;-61
2022/03/26 03:45:31;;;;;;;10.70;5.67;;;;;;;5.33;53.06;95426.34;5033124;28;20205;-59
2022/03/26 03:47:57;;;;;;;15.97;5.87;;;;;;;5.00;53.69;95396.97;5032759;28;20247;-64
2022/03/26 03:50:23;;;;;;;13.47;6.03;;;;;;;5.30;54.28;95429.03;5032952;28;20210;-65
2022/03/26 03:52:48;;;;;;;8.30;5.40;;;;;;;5.21;54.94;95420.25;5014913;28;20200;-64
2022/03/26 03:55:14;;;;;;;8.37;5.40;;;;;;;5.16;55.05;95432.25;5032583;28;20235;-62
2022/03/26 03:57:41;;;;;;;11.20;5.80;;;;;;;5.15;54.28;95423.09;5032601;28;20181;-65
2022/03/26 04:00:08;;;;;;;10.37;6.47;;;;;;;5.02;55.09;95417.84;5014612;28;20730;-65
2022/03/26 04:02:34;;;;;;;11.00;5.70;;;;;;;4.72;56.01;95413.53;5032690;28;20243;-64
2022/03/26 04:05:00;;;;;;;15.43;6.17;;;;;;;4.56;55.89;95407.63;5014830;28;20212;-62
2022/03/26 04:07:25;;;;;;;11.03;5.57;;;;;;;4.57;56.78;95425.16;5032818;28;20232;-64
2022/03/26 04:09:50;;;;;;;14.33;6.03;;;;;;;4.52;56.90;95418.75;5014645;28;20206;-59
2022/03/26 04:12:16;;;;;;;12.63;5.90;;;;;;;4.66;56.89;95426.44;5032383;28;20182;-65
2022/03/26 04:14:43;;;;;;;10.23;5.93;;;;;;;4.66;55.93;95423.91;5032360;28;20226;-61
2022/03/26 04:17:09;;;;;;;9.70;5.43;;;;;;;4.76;56.05;95425.91;5014573;28;20186;-64
2022/03/26 04:19:35;;;;;;;13.17;6.63;;;;;;;4.82;55.33;95433.16;5014828;28;20283;-64
2022/03/26 04:22:01;;;;;;;14.10;6.17;;;;;;;4.92;55.51;95426.75;5014256;28;20288;-65
2022/03/26 04:24:26;;;;;;;11.50;6.07;;;;;;;5.03;55.12;95437.09;5032134;28;20238;-64
2022/03/26 04:26:52;;;;;;;12.33;5.80;;;;;;;4.87;55.11;95423.66;5032278;28;20206;-64
2022/03/26 04:29:17;;;;;;;9.10;5.67;;;;;;;4.94;55.29;95440.09;5031966;28;20188;-65
2022/03/26 04:31:43;;;;;;;8.23;5.60;;;;;;;5.02;55.68;95422.06;5032214;28;20188;-62
2022/03/26 04:34:08;;;;;;;11.60;5.50;;;;;;;5.06;55.50;95431.09;5014144;28;20588;-60
2022/03/26 04:36:34;;;;;;;11.43;6.20;;;;;;;5.27;54.56;95455.22;5014390;28;20203;-61
2022/03/26 04:39:00;;;;;;;11.50;6.53;;;;;;;5.30;55.09;95454.22;5032034;28;20237;-61
2022/03/26 04:41:26;;;;;;;10.53;5.93;;;;;;;5.27;55.75;95452.69;5032423;28;20298;-64
2022/03/26 04:43:52;;;;;;;12.60;5.40;;;;;;;5.26;55.81;95456.09;5032232;28;20216;-64
2022/03/26 04:46:17;;;;;;;12.53;5.63;;;;;;;5.24;55.57;95462.09;5014313;28;20212;-62
2022/03/26 04:48:45;;;;;;;10.17;5.80;;;;;;;5.18;55.16;95457.38;5032036;28;20196;-60
2022/03/26 04:51:11;;;;;;;8.43;4.97;;;;;;;5.00;55.81;95452.38;5032211;28;20287;-64
2022/03/26 04:53:37;;;;;;;9.47;5.97;;;;;;;5.01;55.55;95450.66;5014297;28;20637;-62
2022/03/26 04:56:03;;;;;;;9.17;5.83;;;;;;;4.82;56.40;95465.06;5032143;28;20218;-62
2022/03/26 04:58:28;;;;;;;11.10;5.80;;;;;;;4.69;57.17;95454.78;5031763;28;20229;-62
2022/03/26 05:00:53;;;;;;;12.90;5.23;;;;;;;4.64;57.68;95451.69;5031942;28;20703;-60
2022/03/26 05:03:19;;;;;;;10.13;5.50;;;;;;;4.63;59.72;95439.97;5013919;28;20184;-60
2022/03/26 05:05:44;;;;;;;9.23;5.70;;;;;;;4.68;58.18;95454.88;5032022;28;20211;-61
2022/03/26 05:08:10;;;;;;;11.00;5.47;;;;;;;4.75;58.46;95453.66;5013839;28;20637;-61
2022/03/26 05:10:35;;;;;;;14.50;6.00;;;;;;;4.77;57.91;95439.28;5031854;28;20207;-61
2022/03/26 05:13:01;;;;;;;13.00;5.83;;;;;;;4.82;58.18;95457.53;5031772;28;20580;-63
2022/03/26 05:15:27;;;;;;;12.87;6.30;;;;;;;4.80;58.55;95461.81;5013750;28;20800;-63
2022/03/26 05:17:54;;;;;;;11.47;5.90;;;;;;;4.82;58.70;95468.41;5013686;28;20712;-61
2022/03/26 05:20:20;;;;;;;9.60;6.03;;;;;;;4.70;58.78;95463.16;5031709;28;20308;-65
2022/03/26 05:22:47;;;;;;;11.07;6.07;;;;;;;4.76;59.11;95462.84;5031480;28;20185;-65
2022/03/26 05:25:13;;;;;;;11.83;6.10;;;;;;;4.89;58.96;95464.69;5013651;28;20313;-65
2022/03/26 05:27:43;;;;;;;10.20;5.70;;;;;;;5.08;58.14;95472.97;5013850;28;20184;-64
2022/03/26 05:30:09;;;;;;;13.23;6.83;;;;;;;5.21;58.30;95473.19;5014069;28;20553;-62
2022/03/26 05:32:35;;;;;;;10.30;6.37;;;;;;;5.48;57.71;95481.00;5014582;28;20196;-61
2022/03/26 05:35:00;;;;;;;11.30;6.23;;;;;;;5.72;55.70;95494.88;5035598;28;20221;-64
2022/03/26 05:37:26;;;;;;;8.70;5.83;;;;;;;5.72;56.53;95475.50;5035153;28;20264;-62
2022/03/26 05:39:52;;;;;;;14.07;6.60;;;;;;;6.04;55.37;95496.53;5000987;28;20216;-63
2022/03/26 05:42:18;;;;;;;11.57;6.43;;;;;;;6.06;54.19;95499.78;5035048;28;20178;-62
2022/03/26 05:44:43;;;;;;;12.30;6.47;;;;;;;6.14;54.45;95501.91;5017305;28;20217;-61
2022/03/26 05:47:09;;;;;;;16.53;7.30;;;;;;;6.51;52.96;95517.50;5017257;28;20703;-61
2022/03/26 05:49:35;;;;;;;21.60;9.03;;;;;;;6.57;52.99;95514.63;5035021;28;20292;-61
2022/03/26 05:52:00;;;;;;;15.63;8.63;;;;;;;6.63;53.69;95523.56;5034874;28;20212;-62
2022/03/26 05:54:26;;;;;;;13.63;7.87;;;;;;;6.83;52.91;95523.28;5033858;28;20238;-61
2022/03/26 05:56:52;;;;;;;17.60;9.30;;;;;;;6.74;52.74;95514.53;5059443;23;20719;-64
2022/03/26 05:59:23;;;;;;;19.87;9.33;;;;;;;7.15;52.07;95529.06;5054537;28;20260;-62
2022/03/26 06:01:50;;;;;;;21.37;8.57;;;;;;;7.11;51.50;95530.13;5053284;28;20273;-60
2022/03/26 06:04:17;;;;;;;14.77;6.80;;;;;;;7.04;51.44;95529.66;5054781;28;20608;-61
2022/03/26 06:06:43;;;;;;;11.03;6.37;;;;;;;7.19;51.59;95530.50;5054666;28;20204;-62
2022/03/26 06:09:10;;;;;;;12.37;7.00;;;;;;;7.26;51.24;95532.59;5054357;28;20212;-59
2022/03/26 06:11:36;;;;;;;15.43;7.50;;;;;;;7.22;51.82;95522.72;5054682;28;20177;-61
2022/03/26 06:14:03;;;;;;;17.57;8.47;;;;;;;7.10;52.99;95521.72;5054601;28;20258;-64
2022/03/26 06:16:29;;;;;;;15.27;8.43;;;;;;;7.03;54.11;95520.44;5055065;28;20606;-61
2022/03/26 06:18:55;;;;;;;21.93;11.53;;;;;;;6.59;55.45;95499.38;5054385;28;20706;-60
2022/03/26 06:21:20;;;;;;;27.00;13.57;;;;;;;6.75;54.85;95513.63;5053275;28;20292;-62
2022/03/26 06:23:46;;;;;;;23.10;10.97;;;;;;;6.42;56.17;95505.38;5053159;28;20181;-63
2022/03/26 06:26:12;;;;;;;24.17;11.63;;;;;;;6.53;56.53;95508.13;5054733;28;20252;-64
2022/03/26 06:28:38;;;;;;;26.63;12.17;;;;;;;7.00;54.98;95517.28;5054075;28;20182;-64
2022/03/26 06:31:04;;;;;;;25.83;12.13;;;;;;;7.05;54.74;95522.91;5054500;28;20205;-62
2022/03/26 06:33:29;;;;;;;28.17;11.77;;;;;;;6.94;54.24;95522.69;5052874;28;20189;-59
2022/03/26 06:35:55;;;;;;;24.60;12.60;;;;;;;7.16;53.33;95535.72;5052976;28;20214;-60
2022/03/26 06:38:21;;;;;;;30.50;12.13;;;;;;;7.45;54.06;95537.41;5054076;28;20174;-62
2022/03/26 06:40:47;;;;;;;23.30;11.47;;;;;;;7.43;53.06;95545.06;5053794;28;20205;-65
2022/03/26 06:43:12;;;;;;;21.10;10.90;;;;;;;7.72;53.14;95547.59;5053817;28;20269;-62
2022/03/26 06:45:40;;;;;;;23.43;10.87;;;;;;;7.81;53.33;95547.88;5054425;28;20374;-60
2022/03/26 06:48:07;;;;;;;22.30;12.50;;;;;;;7.95;53.16;95547.88;5052893;28;20559;-60
2022/03/26 06:50:32;;;;;;;20.20;12.60;;;;;;;8.05;52.52;95550.66;5054213;28;20194;-59
2022/03/26 06:52:59;;;;;;;13.67;8.73;;;;;;;8.86;92.41;95514.31;5052449;28;20302;-64
2022/03/26 06:55:26;;;;;;;17.67;10.90;;;;;;;9.93;84.85;95576.50;5053695;28;20598;-65
2022/03/26 06:57:52;;;;;;;26.63;10.70;;;;;;;10.36;82.81;95553.28;5053818;28;20182;-63
2022/03/26 07:00:18;;;;;;;19.50;11.03;;;;;;;10.92;90.00;95555.16;5053921;28;20271;-63
2022/03/26 07:02:44;;;;;;;28.27;11.20;;;;;;;10.82;65.10;95809.38;5053831;28;20178;-65
2022/03/26 07:05:11;;;;;;;20.67;11.17;;;;;;;10.99;77.90;95635.22;5053855;28;20209;-63
2022/03/26 07:07:37;;;;;;;15.50;10.17;;;;;;;10.22;51.96;95782.13;5053518;28;20543;-63
2022/03/26 07:10:04;;;;;;;22.20;11.77;;;;;;;9.69;53.67;95737.28;5053776;28;20231;-65
2022/03/26 07:12:30;;;;;;;16.47;10.20;;;;;;;9.53;51.73;95756.94;5052322;28;20200;-64
2022/03/26 07:14:57;;;;;;;22.57;10.83;;;;;;;9.38;52.37;95740.09;5053544;28;20213;-64
2022/03/26 07:17:23;;;;;;;18.07;10.33;;;;;;;9.38;54.15;95723.16;5053393;28;20185;-61
2022/03/26 07:19:51;;;;;;;23.83;10.83;;;;;;;9.45;53.20;95738.81;5053353;28;20209;-62
2022/03/26 07:22:17;;;;;;;25.63;11.23;;;;;;;9.28;51.97;95743.22;5053381;28;20173;-62
2022/03/26 07:24:43;;;;;;;17.37;10.43;;;;;;;9.26;51.73;95749.31;5053452;28;20217;-60
2022/03/26 07:27:09;;;;;;;17.33;10.80;;;;;;;9.17;51.36;95760.03;5053444;28;20186;-69
2022/03/26 07:29:38;;;;;;;16.87;11.00;;;;;;;8.84;52.75;95726.56;5052682;28;20213;-69
2022/03/26 07:32:06;;;;;;;20.93;10.00;;;;;;;8.72;55.58;95663.94;5052767;28;20632;-61
2022/03/26 07:34:31;;;;;;;22.70;10.50;;;;;;;9.06;53.00;95734.50;5052009;28;20221;-68
2022/03/26 07:36:57;;;;;;;25.43;10.60;;;;;;;8.88;56.87;95650.22;5053324;28;20615;-67
2022/03/26 07:39:23;;;;;;;22.87;10.40;;;;;;;9.09;54.12;95706.44;5052481;28;20209;-69
2022/03/26 07:41:49;;;;;;;23.50;10.53;;;;;;;9.01;54.08;95694.19;5053240;28;20181;-64
2022/03/26 07:44:14;;;;;;;20.63;11.17;;;;;;;9.13;54.39;95702.78;5052994;28;20193;-64
2022/03/26 07:46:40;;;;;;;23.70;11.33;;;;;;;9.10;54.77;95700.44;5053118;28;20257;-62
2022/03/26 07:49:06;;;;;;;22.47;11.10;;;;;;;9.25;56.45;95669.03;5051401;28;20184;-62
2022/03/26 07:51:31;;;;;;;21.53;10.90;;;;;;;9.46;55.16;95694.75;5023165;23;20230;-62
2022/03/26 07:53:57;;;;;;;27.70;10.97;;;;;;;9.59;50.08;95785.28;5013107;28;20211;-67
2022/03/26 07:56:23;;;;;;;20.00;10.33;;;;;;;9.86;49.04;95786.06;5012968;28;20206;-68
2022/03/26 07:58:49;;;;;;;18.90;10.57;;;;;;;9.87;48.51;95802.94;5012928;28;20314;-62
2022/03/26 08:01:15;;;;;;;19.90;10.93;;;;;;;9.75;48.62;95797.81;5013471;28;20301;-61
2022/03/26 08:03:42;;;;;;;18.83;11.37;;;;;;;9.73;48.45;95799.66;5012907;28;20269;-63
2022/03/26 08:06:08;;;;;;;24.43;10.53;;;;;;;9.58;48.89;95773.47;5013132;28;20243;-61
2022/03/26 08:08:34;;;;;;;22.00;11.13;;;;;;;9.74;46.07;95830.00;5012893;28;20183;-64
2022/03/26 08:11:00;;;;;;;26.03;11.30;;;;;;;9.56;46.95;95805.78;5011561;28;20214;-67
2022/03/26 08:13:26;;;;;;;19.43;10.57;;;;;;;9.83;47.94;95796.44;5012712;28;20175;-63
2022/03/26 08:15:51;;;;;;;20.20;11.17;;;;;;;9.86;46.82;95797.94;5011584;28;20684;-65
2022/03/26 08:18:17;;;;;;;23.93;10.53;;;;;;;10.10;48.06;95789.59;5012834;28;20742;-66
2022/03/26 08:20:46;;;;;;;19.73;10.13;;;;;;;10.21;44.61;95837.19;5011352;28;20673;-63
2022/03/26 08:23:11;;;;;;;15.17;8.83;;;;;;;10.13;45.48;95816.53;5012554;28;20199;-63
2022/03/26 08:28:23;;;;;;;16.93;9.60;;;;;;;9.86;45.04;95820.78;5013115;28;20673;-63
2022/03/26 08:30:49;;;;;;;18.50;10.77;;;;;;;9.84;44.55;95832.78;5012816;28;20571;-63
2022/03/26 08:33:16;;;;;;;19.97;10.47;;;;;;;10.02;46.70;95760.47;5011359;28;20647;-64
2022/03/26 08:35:42;;;;;;;15.77;9.70;;;;;;;10.38;44.72;95808.16;5012594;28;20676;-67
2022/03/26 08:38:08;;;;;;;16.60;10.33;;;;;;;10.77;44.71;95816.50;5012200;28;20642;-67
2022/03/26 08:40:34;;;;;;;19.20;11.23;;;;;;;11.09;43.72;95824.50;5012644;28;20234;-67
2022/03/26 08:43:00;;;;;;;21.10;10.53;;;;;;;11.34;44.13;95801.53;5010888;28;20183;-66
2022/03/26 08:45:30;;;;;;;34.20;12.17;;;;;;;11.58;44.00;95814.28;5012537;28;20207;-63
2022/03/26 08:47:56;;;;;;;20.53;11.00;;;;;;;11.84;41.65;95848.97;5012014;28;20171;-64
2022/03/26 08:50:23;;;;;;;22.90;11.00;;;;;;;12.11;42.16;95802.88;5012392;28;20665;-65
2022/03/26 08:52:50;;;;;;;19.67;10.40;;;;;;;12.44;40.10;95818.28;5012260;28;20179;-61
2022/03/26 08:55:17;;;;;;;18.40;10.60;;;;;;;12.66;40.59;95790.25;5012067;28;20663;-66
2022/03/26 08:57:44;;;;;;;22.83;10.87;;;;;;;13.08;39.81;95804.09;5010864;28;20182;-62
2022/03/26 09:00:11;;;;;;;15.77;9.77;;;;;;;13.34;39.90;95798.63;5011903;28;20683;-65
2022/03/26 09:02:38;;;;;;;13.40;9.17;;;;;;;13.64;37.49;95825.25;5009946;28;20629;-67
2022/03/26 09:05:06;;;;;;;19.13;10.00;;;;;;;13.69;35.81;95800.19;5011868;28;20210;-67
2022/03/26 09:07:32;;;;;;;14.70;9.27;;;;;;;13.93;35.88;95724.09;5009989;28;20183;-65
2022/03/26 09:09:58;;;;;;;18.70;8.70;;;;;;;14.15;34.71;95716.31;5011008;28;20203;-65
2022/03/26 09:12:23;;;;;;;11.02;7.90;;;;;;;14.41;33.70;95680.94;5010620;28;20281;-61
2022/03/26 09:14:49;;;;;;;20.17;8.77;;;;;;;14.53;34.01;95659.44;5010371;28;20236;-61
2022/03/26 09:17:14;;;;;;;18.02;8.65;;;;;;;14.61;33.18;95657.03;5011913;28;20193;-61
2022/03/26 09:19:40;;;;;;;15.82;9.20;;;;;;;14.75;33.33;95641.31;5012670;28;20595;-65
2022/03/26 09:22:05;;;;;;;18.97;9.30;;;;;;;14.92;32.79;95636.41;5010375;28;20183;-61
2022/03/26 09:24:31;;;;;;;16.30;9.57;;;;;;;15.29;33.43;95631.44;5010541;28;20202;-61
2022/03/26 09:26:56;;;;;;;17.35;9.80;;;;;;;15.53;32.85;95629.31;5011595;28;20372;-67
2022/03/26 09:29:22;;;;;;;15.48;9.18;;;;;;;15.90;33.24;95625.06;5010248;28;20835;-65
2022/03/26 09:31:47;;;;;;;14.35;8.48;;;;;;;16.12;32.03;95618.81;5011850;28;20257;-65
2022/03/26 09:34:13;;;;;;;21.10;9.18;;;;;;;16.40;32.34;95627.38;5010290;28;20202;-67
2022/03/26 09:36:39;;;;;;;16.58;9.32;;;;;;;15.68;30.21;95601.50;5011641;28;20225;-66
2022/03/26 09:39:04;;;;;;;18.33;9.45;;;;;;;15.76;31.45;95583.66;5011713;28;20322;-65
2022/03/26 09:41:31;;;;;;;16.08;9.98;;;;;;;15.93;30.27;95595.78;5011534;28;20186;-65
2022/03/26 09:43:57;;;;;;;16.60;9.90;;;;;;;16.13;31.14;95576.81;5009818;28;20650;-64
2022/03/26 09:46:24;;;;;;;17.20;9.52;;;;;;;16.41;31.04;95577.63;5010275;28;20203;-65
2022/03/26 09:48:50;;;;;;;16.20;10.07;;;;;;;16.40;31.51;95564.00;5011722;28;20247;-60
2022/03/26 09:51:20;;;;;;;16.55;10.75;;;;;;;16.86;31.23;95545.13;5010274;28;20233;-60
2022/03/26 09:53:49;;;;;;;18.65;10.38;;;;;;;17.10;31.49;95541.94;5011483;28;20171;-62
2022/03/26 09:56:15;;;;;;;15.27;10.13;;;;;;;16.96;30.54;95553.56;5010318;28;20210;-65
2022/03/26 09:58:41;;;;;;;17.23;9.82;;;;;;;17.25;31.05;95545.63;5011631;28;20180;-62
2022/03/26 10:01:06;;;;;;;19.60;10.18;;;;;;;17.35;29.73;95557.41;5010296;28;20205;-61
2022/03/26 10:03:33;;;;;;;15.80;9.63;;;;;;;17.18;31.44;95540.25;5010056;28;20182;-60
2022/03/26 10:06:03;;;;;;;15.48;9.48;;;;;;;16.95;29.95;95543.44;5011833;28;20207;-61
2022/03/26 10:08:34;;;;;;;17.10;9.75;;;;;;;16.55;30.50;95542.06;5011354;28;20175;-61
2022/03/26 10:11:00;;;;;;;18.17;10.73;;;;;;;16.81;31.15;95534.47;5011734;28;20569;-61
2022/03/26 10:13:38;;;;;;;19.00;9.57;;;;;;;16.81;30.72;95531.88;5011069;28;20183;-61
2022/03/26 10:16:06;;;;;;;18.02;10.02;;;;;;;17.10;31.11;95526.53;5011389;28;20301;-61
2022/03/26 10:18:37;;;;;;;19.33;10.73;;;;;;;16.79;30.73;95531.22;5010473;28;20171;-61
2022/03/26 10:21:06;;;;;;;21.60;10.90;;;;;;;17.08;30.27;95518.16;5015148;28;20230;-61
2022/03/26 10:23:32;;;;;;;16.63;9.93;;;;;;;17.34;29.98;95519.00;5013398;28;20178;-64
2022/03/26 10:26:06;;;;;;;14.70;9.93;;;;;;;17.40;30.00;95514.09;5030054;28;20198;-64
2022/03/26 10:28:31;;;;;;;16.35;9.00;;;;;;;17.24;30.54;95492.59;5013409;28;20183;-60
2022/03/26 10:34:15;;;;;;;14.15;8.07;;;;;;;17.05;30.66;95503.06;5014615;28;20194;-63
2022/03/26 10:36:42;;;;;;;16.42;8.45;;;;;;;17.19;30.19;95505.09;5014180;28;20194;-64
2022/03/26 10:39:29;;;;;;;13.00;7.43;;;;;;;17.34;29.79;95493.31;5014086;28;20179;-60
2022/03/26 10:41:56;;;;;;;13.57;8.65;;;;;;;17.79;30.13;95495.72;5014597;28;20269;-65
2022/03/26 10:44:27;;;;;;;13.90;7.45;;;;;;;18.07;29.60;95490.22;5014752;28;20274;-66
2022/03/26 10:47:01;;;;;;;11.50;7.32;;;;;;;18.18;29.25;95489.16;5014778;28;20179;-65
2022/03/26 10:49:36;;;;;;;14.10;9.10;;;;;;;18.00;28.20;95499.50;5014057;28;20202;-65
2022/03/26 10:52:10;;;;;;;13.75;7.35;;;;;;;17.63;28.17;95493.88;5014065;28;20171;-65
2022/03/26 10:54:35;;;;;;;12.73;9.07;;;;;;;16.55;28.86;95480.44;5014270;28;20215;-66
2022/03/26 10:57:01;;;;;;;13.52;8.13;;;;;;;16.89;28.76;95472.09;5014152;28;20682;-66
2022/03/26 10:59:29;;;;;;;13.38;7.75;;;;;;;17.48;28.92;95475.56;5012279;28;20757;-66
2022/03/26 11:01:55;;;;;;;13.60;8.27;;;;;;;17.96;28.92;95462.19;5014343;28;20198;-66
2022/03/26 11:04:21;;;;;;;9.10;7.38;;;;;;;18.47;28.32;95463.00;5012608;28;20245;-66
2022/03/26 11:06:48;;;;;;;10.75;6.72;;;;;;;18.25;28.32;95460.03;5012168;28;20194;-65
2022/03/26 11:09:15;;;;;;;11.68;7.10;;;;;;;17.90;28.78;95454.25;5012417;28;20680;-65
2022/03/26 11:11:45;;;;;;;15.48;7.10;;;;;;;17.96;28.24;95444.16;5013573;28;20186;-65
2022/03/26 11:14:17;;;;;;;12.05;6.63;;;;;;;17.95;28.67;95447.72;5013364;28;20195;-65
2022/03/26 11:17:06;;;;;;;14.50;6.63;;;;;;;18.05;28.75;95447.59;5013655;28;20172;-66
2022/03/26 11:19:41;;;;;;;11.15;6.32;;;;;;;18.59;27.56;95439.38;5012237;28;20682;-65
2022/03/26 11:22:12;;;;;;;11.32;5.40;;;;;;;19.04;26.92;95450.03;5014294;28;20186;-65
2022/03/26 11:25:17;;;;;;;10.57;5.93;;;;;;;18.73;26.97;95435.34;5013710;28;20199;-65
2022/03/26 11:27:57;;;;;;;10.20;5.40;;;;;;;18.97;27.36;95433.59;5013552;28;20183;-65
2022/03/26 11:30:41;;;;;;;9.10;5.55;;;;;;;19.01;27.20;95427.13;5012793;28;20280;-65
2022/03/26 11:33:11;;;;;;;13.35;6.00;;;;;;;18.71;27.48;95419.25;5013635;28;20213;-59